sensor_id;sensor_type;location;lat;lon;timestamp;pressure;altitude;pressure_sealevel;temperature
68127;BMP180;54931;52.098;21.006;2023-04-09T00:00:47;100972.60;;;7.40
68127;BMP180;54931;52.098;21.006;2023-04-09T00:03:33;100972.40;;;7.40
68127;BMP180;54931;52.098;21.006;2023-04-09T00:06:02;100971.20;;;7.40
68127;BMP180;54931;52.098;21.006;2023-04-09T00:08:30;100975.40;;;7.40
68127;BMP180;54931;52.098;21.006;2023-04-09T00:10:58;100973.60;;;7.40
68127;BMP180;54931;52.098;21.006;2023-04-09T00:13:26;100974.20;;;7.40
68127;BMP180;54931;52.098;21.006;2023-04-09T00:15:53;100972.20;;;7.40
68127;BMP180;54931;52.098;21.006;2023-04-09T00:18:21;100971.80;;;7.40
68127;BMP180;54931;52.098;21.006;2023-04-09T00:20:48;100963.40;;;7.40
68127;BMP180;54931;52.098;21.006;2023-04-09T00:23:16;100962.20;;;7.38
68127;BMP180;54931;52.098;21.006;2023-04-09T00:25:44;100961.80;;;7.34
68127;BMP180;54931;52.098;21.006;2023-04-09T00:28:12;100960.20;;;7.32
68127;BMP180;54931;52.098;21.006;2023-04-09T00:30:39;100964.00;;;7.34
68127;BMP180;54931;52.098;21.006;2023-04-09T00:33:07;100961.60;;;7.30
68127;BMP180;54931;52.098;21.006;2023-04-09T00:35:34;100960.00;;;7.30
68127;BMP180;54931;52.098;21.006;2023-04-09T00:38:02;100958.20;;;7.30
68127;BMP180;54931;52.098;21.006;2023-04-09T00:40:30;100957.80;;;7.30
68127;BMP180;54931;52.098;21.006;2023-04-09T00:42:58;100948.00;;;7.30
68127;BMP180;54931;52.098;21.006;2023-04-09T00:45:25;100949.40;;;7.30
68127;BMP180;54931;52.098;21.006;2023-04-09T00:47:53;100947.60;;;7.30
68127;BMP180;54931;52.098;21.006;2023-04-09T00:50:21;100949.60;;;7.30
68127;BMP180;54931;52.098;21.006;2023-04-09T00:52:48;100950.20;;;7.30
68127;BMP180;54931;52.098;21.006;2023-04-09T00:55:17;100945.20;;;7.30
68127;BMP180;54931;52.098;21.006;2023-04-09T00:57:45;100940.40;;;7.32
68127;BMP180;54931;52.098;21.006;2023-04-09T01:00:14;100942.60;;;7.38
68127;BMP180;54931;52.098;21.006;2023-04-09T01:02:42;100941.20;;;7.40
68127;BMP180;54931;52.098;21.006;2023-04-09T01:05:11;100949.00;;;7.40
68127;BMP180;54931;52.098;21.006;2023-04-09T01:07:58;100951.80;;;7.40
68127;BMP180;54931;52.098;21.006;2023-04-09T01:10:42;100948.20;;;7.40
68127;BMP180;54931;52.098;21.006;2023-04-09T01:13:19;100949.60;;;7.40
68127;BMP180;54931;52.098;21.006;2023-04-09T01:15:57;100951.00;;;7.40
68127;BMP180;54931;52.098;21.006;2023-04-09T01:18:39;100951.20;;;7.40
68127;BMP180;54931;52.098;21.006;2023-04-09T01:21:15;100952.60;;;7.40
68127;BMP180;54931;52.098;21.006;2023-04-09T01:24:36;100952.80;;;7.44
68127;BMP180;54931;52.098;21.006;2023-04-09T01:27:08;100954.60;;;7.50
68127;BMP180;54931;52.098;21.006;2023-04-09T01:29:45;100953.00;;;7.50
68127;BMP180;54931;52.098;21.006;2023-04-09T01:32:17;100958.80;;;7.50
68127;BMP180;54931;52.098;21.006;2023-04-09T01:34:47;100957.60;;;7.50
68127;BMP180;54931;52.098;21.006;2023-04-09T01:37:17;100963.20;;;7.50
68127;BMP180;54931;52.098;21.006;2023-04-09T01:39:46;100958.00;;;7.50
68127;BMP180;54931;52.098;21.006;2023-04-09T01:42:15;100965.60;;;7.48
68127;BMP180;54931;52.098;21.006;2023-04-09T01:44:45;100967.20;;;7.50
68127;BMP180;54931;52.098;21.006;2023-04-09T01:47:13;100971.60;;;7.50
68127;BMP180;54931;52.098;21.006;2023-04-09T01:49:41;100971.20;;;7.48
68127;BMP180;54931;52.098;21.006;2023-04-09T01:52:10;100971.20;;;7.40
68127;BMP180;54931;52.098;21.006;2023-04-09T01:54:38;100973.80;;;7.40
68127;BMP180;54931;52.098;21.006;2023-04-09T01:57:05;100976.00;;;7.40
68127;BMP180;54931;52.098;21.006;2023-04-09T01:59:33;100977.60;;;7.40
68127;BMP180;54931;52.098;21.006;2023-04-09T02:02:09;100976.40;;;7.40
68127;BMP180;54931;52.098;21.006;2023-04-09T02:04:45;100979.40;;;7.40
68127;BMP180;54931;52.098;21.006;2023-04-09T02:07:51;100982.40;;;7.40
68127;BMP180;54931;52.098;21.006;2023-04-09T02:10:25;100979.80;;;7.40
68127;BMP180;54931;52.098;21.006;2023-04-09T02:12:55;100982.00;;;7.40
68127;BMP180;54931;52.098;21.006;2023-04-09T02:15:27;100979.60;;;7.40
68127;BMP180;54931;52.098;21.006;2023-04-09T02:17:54;100983.60;;;7.40
68127;BMP180;54931;52.098;21.006;2023-04-09T02:20:22;100981.40;;;7.40
68127;BMP180;54931;52.098;21.006;2023-04-09T02:22:51;100978.60;;;7.40
68127;BMP180;54931;52.098;21.006;2023-04-09T02:25:18;100969.60;;;7.40
68127;BMP180;54931;52.098;21.006;2023-04-09T02:27:46;100965.40;;;7.38
68127;BMP180;54931;52.098;21.006;2023-04-09T02:30:14;100968.80;;;7.40
68127;BMP180;54931;52.098;21.006;2023-04-09T02:32:41;100978.20;;;7.40
68127;BMP180;54931;52.098;21.006;2023-04-09T02:35:09;100979.20;;;7.40
68127;BMP180;54931;52.098;21.006;2023-04-09T02:37:36;100981.40;;;7.40
68127;BMP180;54931;52.098;21.006;2023-04-09T02:40:05;100978.60;;;7.40
68127;BMP180;54931;52.098;21.006;2023-04-09T02:42:33;100974.40;;;7.40
68127;BMP180;54931;52.098;21.006;2023-04-09T02:45:00;100964.40;;;7.40
68127;BMP180;54931;52.098;21.006;2023-04-09T02:47:29;100962.00;;;7.32
68127;BMP180;54931;52.098;21.006;2023-04-09T02:49:56;100969.80;;;7.30
68127;BMP180;54931;52.098;21.006;2023-04-09T02:52:24;100965.60;;;7.36
68127;BMP180;54931;52.098;21.006;2023-04-09T02:54:52;100971.80;;;7.40
68127;BMP180;54931;52.098;21.006;2023-04-09T02:57:19;100975.20;;;7.40
68127;BMP180;54931;52.098;21.006;2023-04-09T02:59:47;100979.20;;;7.40
68127;BMP180;54931;52.098;21.006;2023-04-09T03:02:15;100978.00;;;7.40
68127;BMP180;54931;52.098;21.006;2023-04-09T03:04:42;100973.60;;;7.40
68127;BMP180;54931;52.098;21.006;2023-04-09T03:07:10;100973.60;;;7.40
68127;BMP180;54931;52.098;21.006;2023-04-09T03:09:37;100966.60;;;7.40
68127;BMP180;54931;52.098;21.006;2023-04-09T03:12:05;100975.20;;;7.40
68127;BMP180;54931;52.098;21.006;2023-04-09T03:14:33;100976.40;;;7.40
68127;BMP180;54931;52.098;21.006;2023-04-09T03:17:00;100976.00;;;7.40
68127;BMP180;54931;52.098;21.006;2023-04-09T03:19:30;100966.80;;;7.44
68127;BMP180;54931;52.098;21.006;2023-04-09T03:21:57;100966.20;;;7.50
68127;BMP180;54931;52.098;21.006;2023-04-09T03:24:25;100962.80;;;7.42
68127;BMP180;54931;52.098;21.006;2023-04-09T03:26:53;100955.00;;;7.40
68127;BMP180;54931;52.098;21.006;2023-04-09T03:29:20;100952.20;;;7.40
68127;BMP180;54931;52.098;21.006;2023-04-09T03:31:50;100947.40;;;7.30
68127;BMP180;54931;52.098;21.006;2023-04-09T03:34:18;100947.20;;;7.30
68127;BMP180;54931;52.098;21.006;2023-04-09T03:36:45;100944.40;;;7.20
68127;BMP180;54931;52.098;21.006;2023-04-09T03:39:13;100945.00;;;7.20
68127;BMP180;54931;52.098;21.006;2023-04-09T03:41:41;100948.20;;;7.20
68127;BMP180;54931;52.098;21.006;2023-04-09T03:44:09;100949.40;;;7.20
68127;BMP180;54931;52.098;21.006;2023-04-09T03:46:37;100945.00;;;7.20
68127;BMP180;54931;52.098;21.006;2023-04-09T03:49:05;100947.60;;;7.10
68127;BMP180;54931;52.098;21.006;2023-04-09T03:51:33;100946.80;;;7.10
68127;BMP180;54931;52.098;21.006;2023-04-09T03:54:01;100946.00;;;7.10
68127;BMP180;54931;52.098;21.006;2023-04-09T03:56:28;100948.20;;;7.00
68127;BMP180;54931;52.098;21.006;2023-04-09T03:58:56;100949.80;;;7.00
68127;BMP180;54931;52.098;21.006;2023-04-09T04:01:24;100950.60;;;6.96
68127;BMP180;54931;52.098;21.006;2023-04-09T04:03:51;100955.00;;;6.90
68127;BMP180;54931;52.098;21.006;2023-04-09T04:06:19;100956.40;;;6.80
68127;BMP180;54931;52.098;21.006;2023-04-09T04:08:46;100957.20;;;6.70
68127;BMP180;54931;52.098;21.006;2023-04-09T04:11:14;100959.40;;;6.70
68127;BMP180;54931;52.098;21.006;2023-04-09T04:13:41;100963.80;;;6.60
68127;BMP180;54931;52.098;21.006;2023-04-09T04:16:09;100968.00;;;6.50
68127;BMP180;54931;52.098;21.006;2023-04-09T04:18:37;100975.00;;;6.50
68127;BMP180;54931;52.098;21.006;2023-04-09T04:21:04;100977.20;;;6.40
68127;BMP180;54931;52.098;21.006;2023-04-09T04:23:33;100980.20;;;6.40
68127;BMP180;54931;52.098;21.006;2023-04-09T04:26:01;100978.00;;;6.40
68127;BMP180;54931;52.098;21.006;2023-04-09T04:28:32;100982.00;;;6.40
68127;BMP180;54931;52.098;21.006;2023-04-09T04:31:00;100986.80;;;6.40
68127;BMP180;54931;52.098;21.006;2023-04-09T04:33:27;100985.80;;;6.50
68127;BMP180;54931;52.098;21.006;2023-04-09T04:36:10;100985.60;;;6.50
68127;BMP180;54931;52.098;21.006;2023-04-09T04:38:40;100987.80;;;6.60
68127;BMP180;54931;52.098;21.006;2023-04-09T04:41:10;100991.80;;;6.60
68127;BMP180;54931;52.098;21.006;2023-04-09T04:43:38;100989.60;;;6.70
68127;BMP180;54931;52.098;21.006;2023-04-09T04:46:07;100989.80;;;6.80
68127;BMP180;54931;52.098;21.006;2023-04-09T04:48:35;100989.00;;;6.80
68127;BMP180;54931;52.098;21.006;2023-04-09T04:51:02;100994.40;;;6.90
68127;BMP180;54931;52.098;21.006;2023-04-09T04:53:30;100998.40;;;6.94
68127;BMP180;54931;52.098;21.006;2023-04-09T04:55:57;100994.40;;;7.00
68127;BMP180;54931;52.098;21.006;2023-04-09T04:58:25;100999.80;;;7.10
68127;BMP180;54931;52.098;21.006;2023-04-09T05:00:53;100999.60;;;7.20
68127;BMP180;54931;52.098;21.006;2023-04-09T05:03:20;100997.60;;;7.20
68127;BMP180;54931;52.098;21.006;2023-04-09T05:05:48;100996.20;;;7.30
68127;BMP180;54931;52.098;21.006;2023-04-09T05:08:15;101000.20;;;7.30
68127;BMP180;54931;52.098;21.006;2023-04-09T05:10:43;100996.20;;;7.30
68127;BMP180;54931;52.098;21.006;2023-04-09T05:13:11;100993.20;;;7.40
68127;BMP180;54931;52.098;21.006;2023-04-09T05:15:40;100997.40;;;7.40
68127;BMP180;54931;52.098;21.006;2023-04-09T05:18:07;101000.60;;;7.50
68127;BMP180;54931;52.098;21.006;2023-04-09T05:20:36;100998.00;;;7.50
68127;BMP180;54931;52.098;21.006;2023-04-09T05:23:03;101000.00;;;7.50
68127;BMP180;54931;52.098;21.006;2023-04-09T05:25:31;101006.20;;;7.60
68127;BMP180;54931;52.098;21.006;2023-04-09T05:27:58;101000.60;;;7.70
68127;BMP180;54931;52.098;21.006;2023-04-09T05:30:26;100997.00;;;7.76
68127;BMP180;54931;52.098;21.006;2023-04-09T05:32:53;100998.60;;;7.80
68127;BMP180;54931;52.098;21.006;2023-04-09T05:35:21;101000.60;;;7.90
68127;BMP180;54931;52.098;21.006;2023-04-09T05:37:49;100997.80;;;7.90
68127;BMP180;54931;52.098;21.006;2023-04-09T05:40:17;100998.80;;;8.00
68127;BMP180;54931;52.098;21.006;2023-04-09T05:42:44;101001.00;;;8.10
68127;BMP180;54931;52.098;21.006;2023-04-09T05:45:12;100999.60;;;8.10
68127;BMP180;54931;52.098;21.006;2023-04-09T05:47:39;100996.40;;;8.12
68127;BMP180;54931;52.098;21.006;2023-04-09T05:50:08;100995.20;;;8.20
68127;BMP180;54931;52.098;21.006;2023-04-09T05:52:36;100995.40;;;8.28
68127;BMP180;54931;52.098;21.006;2023-04-09T05:55:05;101000.00;;;8.32
68127;BMP180;54931;52.098;21.006;2023-04-09T05:57:32;101009.00;;;8.40
68127;BMP180;54931;52.098;21.006;2023-04-09T06:00:01;101008.80;;;8.50
68127;BMP180;54931;52.098;21.006;2023-04-09T06:02:28;101006.00;;;8.60
68127;BMP180;54931;52.098;21.006;2023-04-09T06:04:56;101009.00;;;8.70
68127;BMP180;54931;52.098;21.006;2023-04-09T06:07:23;101010.20;;;8.80
68127;BMP180;54931;52.098;21.006;2023-04-09T06:09:51;101007.80;;;8.88
68127;BMP180;54931;52.098;21.006;2023-04-09T06:12:18;101011.60;;;9.00
68127;BMP180;54931;52.098;21.006;2023-04-09T06:14:49;101014.20;;;9.10
68127;BMP180;54931;52.098;21.006;2023-04-09T06:17:17;101009.20;;;9.20
68127;BMP180;54931;52.098;21.006;2023-04-09T06:19:44;101010.60;;;9.36
68127;BMP180;54931;52.098;21.006;2023-04-09T06:22:12;101010.60;;;9.50
68127;BMP180;54931;52.098;21.006;2023-04-09T06:24:39;101009.00;;;9.80
68127;BMP180;54931;52.098;21.006;2023-04-09T06:27:07;101009.60;;;9.98
68127;BMP180;54931;52.098;21.006;2023-04-09T06:29:34;101008.20;;;10.00
68127;BMP180;54931;52.098;21.006;2023-04-09T06:32:02;101012.00;;;10.18
68127;BMP180;54931;52.098;21.006;2023-04-09T06:34:30;101010.20;;;10.40
68127;BMP180;54931;52.098;21.006;2023-04-09T06:36:58;101011.80;;;10.70
68127;BMP180;54931;52.098;21.006;2023-04-09T06:39:25;101012.20;;;10.90
68127;BMP180;54931;52.098;21.006;2023-04-09T06:41:54;101015.20;;;11.00
68127;BMP180;54931;52.098;21.006;2023-04-09T06:44:21;101011.00;;;11.30
68127;BMP180;54931;52.098;21.006;2023-04-09T06:46:50;101014.20;;;11.40
68127;BMP180;54931;52.098;21.006;2023-04-09T06:49:18;101012.20;;;11.60
68127;BMP180;54931;52.098;21.006;2023-04-09T06:51:46;101009.80;;;11.70
68127;BMP180;54931;52.098;21.006;2023-04-09T06:54:14;101013.00;;;11.86
68127;BMP180;54931;52.098;21.006;2023-04-09T06:56:41;101015.80;;;12.04
68127;BMP180;54931;52.098;21.006;2023-04-09T06:59:09;101013.40;;;12.30
68127;BMP180;54931;52.098;21.006;2023-04-09T07:01:37;101016.20;;;12.38
68127;BMP180;54931;52.098;21.006;2023-04-09T07:04:05;101019.00;;;12.94
68127;BMP180;54931;52.098;21.006;2023-04-09T07:06:33;101025.80;;;13.48
68127;BMP180;54931;52.098;21.006;2023-04-09T07:09:00;101026.40;;;13.54
68127;BMP180;54931;52.098;21.006;2023-04-09T07:11:28;101031.20;;;13.60
68127;BMP180;54931;52.098;21.006;2023-04-09T07:13:56;101031.80;;;13.50
68127;BMP180;54931;52.098;21.006;2023-04-09T07:16:23;101037.40;;;13.50
68127;BMP180;54931;52.098;21.006;2023-04-09T07:18:51;101039.80;;;13.58
68127;BMP180;54931;52.098;21.006;2023-04-09T07:21:19;101042.40;;;13.70
68127;BMP180;54931;52.098;21.006;2023-04-09T07:23:46;101042.80;;;13.80
68127;BMP180;54931;52.098;21.006;2023-04-09T07:26:14;101045.20;;;13.90
68127;BMP180;54931;52.098;21.006;2023-04-09T07:28:41;101045.60;;;14.12
68127;BMP180;54931;52.098;21.006;2023-04-09T07:31:10;101048.60;;;14.30
68127;BMP180;54931;52.098;21.006;2023-04-09T07:33:38;101050.20;;;14.40
68127;BMP180;54931;52.098;21.006;2023-04-09T07:36:05;101055.80;;;14.50
68127;BMP180;54931;52.098;21.006;2023-04-09T07:38:33;101054.40;;;14.60
68127;BMP180;54931;52.098;21.006;2023-04-09T07:41:01;101052.80;;;14.88
68127;BMP180;54931;52.098;21.006;2023-04-09T07:43:30;101053.00;;;15.12
68127;BMP180;54931;52.098;21.006;2023-04-09T07:45:58;101054.00;;;15.30
68127;BMP180;54931;52.098;21.006;2023-04-09T07:48:25;101054.60;;;15.40
68127;BMP180;54931;52.098;21.006;2023-04-09T07:50:54;101051.20;;;15.30
68127;BMP180;54931;52.098;21.006;2023-04-09T07:53:21;101057.80;;;15.34
68127;BMP180;54931;52.098;21.006;2023-04-09T07:55:50;101063.20;;;15.10
68127;BMP180;54931;52.098;21.006;2023-04-09T07:58:18;101063.00;;;14.70
68127;BMP180;54931;52.098;21.006;2023-04-09T08:00:47;101061.00;;;14.56
68127;BMP180;54931;52.098;21.006;2023-04-09T08:03:15;101056.80;;;14.50
68127;BMP180;54931;52.098;21.006;2023-04-09T08:05:43;101055.80;;;14.30
68127;BMP180;54931;52.098;21.006;2023-04-09T08:08:11;101051.60;;;14.40
68127;BMP180;54931;52.098;21.006;2023-04-09T08:10:39;101053.60;;;14.48
68127;BMP180;54931;52.098;21.006;2023-04-09T08:13:06;101059.40;;;14.72
68127;BMP180;54931;52.098;21.006;2023-04-09T08:15:34;101051.20;;;14.96
68127;BMP180;54931;52.098;21.006;2023-04-09T08:18:03;101053.20;;;15.08
68127;BMP180;54931;52.098;21.006;2023-04-09T08:20:30;101051.60;;;15.30
68127;BMP180;54931;52.098;21.006;2023-04-09T08:22:59;101050.20;;;15.40
68127;BMP180;54931;52.098;21.006;2023-04-09T08:25:27;101049.40;;;15.38
68127;BMP180;54931;52.098;21.006;2023-04-09T08:27:54;101054.20;;;15.28
68127;BMP180;54931;52.098;21.006;2023-04-09T08:30:22;101051.00;;;15.36
68127;BMP180;54931;52.098;21.006;2023-04-09T08:32:49;101048.80;;;15.44
68127;BMP180;54931;52.098;21.006;2023-04-09T08:35:17;101053.40;;;15.60
68127;BMP180;54931;52.098;21.006;2023-04-09T08:37:44;101051.00;;;15.60
68127;BMP180;54931;52.098;21.006;2023-04-09T08:40:12;101051.40;;;15.80
68127;BMP180;54931;52.098;21.006;2023-04-09T08:42:43;101046.60;;;16.26
68127;BMP180;54931;52.098;21.006;2023-04-09T08:45:12;101047.60;;;17.16
68127;BMP180;54931;52.098;21.006;2023-04-09T08:47:42;101048.60;;;17.60
68127;BMP180;54931;52.098;21.006;2023-04-09T08:50:10;101054.60;;;18.20
68127;BMP180;54931;52.098;21.006;2023-04-09T08:52:38;101057.20;;;18.20
68127;BMP180;54931;52.098;21.006;2023-04-09T08:55:07;101064.80;;;18.10
68127;BMP180;54931;52.098;21.006;2023-04-09T08:57:37;101065.60;;;17.94
68127;BMP180;54931;52.098;21.006;2023-04-09T09:00:07;101069.20;;;17.70
68127;BMP180;54931;52.098;21.006;2023-04-09T09:02:36;101066.60;;;17.40
68127;BMP180;54931;52.098;21.006;2023-04-09T09:05:05;101067.00;;;16.90
68127;BMP180;54931;52.098;21.006;2023-04-09T09:07:33;101064.40;;;16.50
68127;BMP180;54931;52.098;21.006;2023-04-09T09:10:01;101069.00;;;16.30
68127;BMP180;54931;52.098;21.006;2023-04-09T09:12:40;101066.20;;;16.00
68127;BMP180;54931;52.098;21.006;2023-04-09T09:15:28;101067.60;;;16.00
68127;BMP180;54931;52.098;21.006;2023-04-09T09:17:58;101071.60;;;16.00
68127;BMP180;54931;52.098;21.006;2023-04-09T09:20:26;101072.20;;;16.00
68127;BMP180;54931;52.098;21.006;2023-04-09T09:22:55;101071.20;;;15.80
68127;BMP180;54931;52.098;21.006;2023-04-09T09:25:24;101073.60;;;15.70
68127;BMP180;54931;52.098;21.006;2023-04-09T09:27:53;101074.80;;;15.58
68127;BMP180;54931;52.098;21.006;2023-04-09T09:30:25;101072.80;;;15.46
68127;BMP180;54931;52.098;21.006;2023-04-09T09:33:09;101073.40;;;15.30
68127;BMP180;54931;52.098;21.006;2023-04-09T09:35:52;101076.60;;;15.16
68127;BMP180;54931;52.098;21.006;2023-04-09T09:38:20;101076.40;;;15.10
68127;BMP180;54931;52.098;21.006;2023-04-09T09:40:49;101074.60;;;15.00
68127;BMP180;54931;52.098;21.006;2023-04-09T09:43:16;101072.00;;;15.02
68127;BMP180;54931;52.098;21.006;2023-04-09T09:45:46;101073.00;;;15.10
68127;BMP180;54931;52.098;21.006;2023-04-09T09:48:15;101069.80;;;15.30
68127;BMP180;54931;52.098;21.006;2023-04-09T09:50:45;101057.40;;;15.82
68127;BMP180;54931;52.098;21.006;2023-04-09T09:53:19;101058.60;;;16.48
68127;BMP180;54931;52.098;21.006;2023-04-09T09:55:52;101057.40;;;17.12
68127;BMP180;54931;52.098;21.006;2023-04-09T09:58:31;101057.20;;;17.56
68127;BMP180;54931;52.098;21.006;2023-04-09T10:01:08;101057.80;;;17.88
68127;BMP180;54931;52.098;21.006;2023-04-09T10:03:39;101061.60;;;18.14
68127;BMP180;54931;52.098;21.006;2023-04-09T10:06:10;101055.00;;;18.42
68127;BMP180;54931;52.098;21.006;2023-04-09T10:08:41;101051.40;;;18.76
68127;BMP180;54931;52.098;21.006;2023-04-09T10:11:09;101060.60;;;19.20
68127;BMP180;54931;52.098;21.006;2023-04-09T10:13:45;101054.20;;;19.10
68127;BMP180;54931;52.098;21.006;2023-04-09T10:16:13;101054.60;;;18.80
68127;BMP180;54931;52.098;21.006;2023-04-09T10:18:41;101055.80;;;18.80
68127;BMP180;54931;52.098;21.006;2023-04-09T10:21:42;101051.80;;;18.84
68127;BMP180;54931;52.098;21.006;2023-04-09T10:24:12;101045.40;;;19.00
68127;BMP180;54931;52.098;21.006;2023-04-09T10:26:42;101046.60;;;18.90
68127;BMP180;54931;52.098;21.006;2023-04-09T10:29:15;101051.60;;;18.60
68127;BMP180;54931;52.098;21.006;2023-04-09T10:32:05;101049.60;;;18.12
68127;BMP180;54931;52.098;21.006;2023-04-09T10:34:37;101050.80;;;17.52
68127;BMP180;54931;52.098;21.006;2023-04-09T10:37:08;101050.80;;;17.30
68127;BMP180;54931;52.098;21.006;2023-04-09T10:39:44;101049.60;;;17.30
68127;BMP180;54931;52.098;21.006;2023-04-09T10:42:21;101046.60;;;17.40
68127;BMP180;54931;52.098;21.006;2023-04-09T10:45:14;101049.20;;;17.62
68127;BMP180;54931;52.098;21.006;2023-04-09T10:47:43;101046.00;;;17.94
68127;BMP180;54931;52.098;21.006;2023-04-09T10:50:26;101045.40;;;18.30
68127;BMP180;54931;52.098;21.006;2023-04-09T10:52:56;101042.20;;;18.28
68127;BMP180;54931;52.098;21.006;2023-04-09T10:55:37;101041.80;;;18.04
68127;BMP180;54931;52.098;21.006;2023-04-09T10:58:10;101040.80;;;18.08
68127;BMP180;54931;52.098;21.006;2023-04-09T11:00:47;101036.40;;;18.10
68127;BMP180;54931;52.098;21.006;2023-04-09T11:03:25;101040.60;;;18.00
68127;BMP180;54931;52.098;21.006;2023-04-09T11:06:04;101038.40;;;18.00
68127;BMP180;54931;52.098;21.006;2023-04-09T11:08:37;101038.60;;;17.96
68127;BMP180;54931;52.098;21.006;2023-04-09T11:11:04;101040.40;;;17.80
68127;BMP180;54931;52.098;21.006;2023-04-09T11:13:33;101037.20;;;17.80
68127;BMP180;54931;52.098;21.006;2023-04-09T11:16:01;101040.80;;;17.60
68127;BMP180;54931;52.098;21.006;2023-04-09T11:18:33;101033.80;;;17.40
68127;BMP180;54931;52.098;21.006;2023-04-09T11:21:02;101030.80;;;17.20
68127;BMP180;54931;52.098;21.006;2023-04-09T11:23:31;101036.80;;;16.94
68127;BMP180;54931;52.098;21.006;2023-04-09T11:25:59;101038.40;;;16.80
68127;BMP180;54931;52.098;21.006;2023-04-09T11:28:28;101035.00;;;16.70
68127;BMP180;54931;52.098;21.006;2023-04-09T11:30:56;101032.00;;;16.60
68127;BMP180;54931;52.098;21.006;2023-04-09T11:33:31;101034.20;;;16.50
68127;BMP180;54931;52.098;21.006;2023-04-09T11:36:01;101034.20;;;16.36
68127;BMP180;54931;52.098;21.006;2023-04-09T11:38:30;101037.20;;;16.14
68127;BMP180;54931;52.098;21.006;2023-04-09T11:40:58;101037.40;;;16.00
68127;BMP180;54931;52.098;21.006;2023-04-09T11:43:25;101038.40;;;16.00
68127;BMP180;54931;52.098;21.006;2023-04-09T11:45:53;101035.60;;;15.90
68127;BMP180;54931;52.098;21.006;2023-04-09T11:48:22;101036.80;;;15.84
68127;BMP180;54931;52.098;21.006;2023-04-09T11:50:51;101036.20;;;15.80
68127;BMP180;54931;52.098;21.006;2023-04-09T11:53:21;101039.80;;;15.60
68127;BMP180;54931;52.098;21.006;2023-04-09T11:55:51;101037.40;;;15.50
68127;BMP180;54931;52.098;21.006;2023-04-09T11:58:24;101035.80;;;15.46
68127;BMP180;54931;52.098;21.006;2023-04-09T12:00:53;101031.00;;;15.30
68127;BMP180;54931;52.098;21.006;2023-04-09T12:03:30;101033.80;;;15.20
68127;BMP180;54931;52.098;21.006;2023-04-09T12:06:02;101034.40;;;15.30
68127;BMP180;54931;52.098;21.006;2023-04-09T12:08:30;101038.20;;;15.30
68127;BMP180;54931;52.098;21.006;2023-04-09T12:11:11;101036.20;;;15.38
68127;BMP180;54931;52.098;21.006;2023-04-09T12:13:39;101033.00;;;15.40
68127;BMP180;54931;52.098;21.006;2023-04-09T12:16:18;101031.00;;;15.50
68127;BMP180;54931;52.098;21.006;2023-04-09T12:18:47;101027.20;;;15.50
68127;BMP180;54931;52.098;21.006;2023-04-09T12:21:16;101032.80;;;15.62
68127;BMP180;54931;52.098;21.006;2023-04-09T12:23:44;101036.40;;;15.80
68127;BMP180;54931;52.098;21.006;2023-04-09T12:26:12;101039.60;;;15.80
68127;BMP180;54931;52.098;21.006;2023-04-09T12:28:40;101033.20;;;15.80
68127;BMP180;54931;52.098;21.006;2023-04-09T12:31:10;101033.40;;;15.90
68127;BMP180;54931;52.098;21.006;2023-04-09T12:33:39;101029.80;;;16.00
68127;BMP180;54931;52.098;21.006;2023-04-09T12:36:07;101034.60;;;16.12
68127;BMP180;54931;52.098;21.006;2023-04-09T12:38:36;101032.00;;;16.18
68127;BMP180;54931;52.098;21.006;2023-04-09T12:41:04;101033.20;;;16.20
68127;BMP180;54931;52.098;21.006;2023-04-09T12:43:31;101028.40;;;16.20
68127;BMP180;54931;52.098;21.006;2023-04-09T12:45:59;101031.60;;;16.06
68127;BMP180;54931;52.098;21.006;2023-04-09T12:48:28;101025.80;;;15.90
68127;BMP180;54931;52.098;21.006;2023-04-09T12:50:55;101031.00;;;16.04
68127;BMP180;54931;52.098;21.006;2023-04-09T12:53:23;101025.00;;;16.32
68127;BMP180;54931;52.098;21.006;2023-04-09T12:55:51;101017.60;;;16.50
68127;BMP180;54931;52.098;21.006;2023-04-09T12:58:18;101019.40;;;16.40
68127;BMP180;54931;52.098;21.006;2023-04-09T13:00:46;101018.60;;;16.40
68127;BMP180;54931;52.098;21.006;2023-04-09T13:03:14;101013.20;;;16.40
68127;BMP180;54931;52.098;21.006;2023-04-09T13:05:44;101014.00;;;16.60
68127;BMP180;54931;52.098;21.006;2023-04-09T13:08:12;101014.20;;;16.70
68127;BMP180;54931;52.098;21.006;2023-04-09T13:10:39;101012.40;;;16.70
68127;BMP180;54931;52.098;21.006;2023-04-09T13:13:07;101009.60;;;16.50
68127;BMP180;54931;52.098;21.006;2023-04-09T13:15:40;101014.20;;;16.46
68127;BMP180;54931;52.098;21.006;2023-04-09T13:18:12;101008.40;;;16.50
68127;BMP180;54931;52.098;21.006;2023-04-09T13:20:40;101011.00;;;16.70
68127;BMP180;54931;52.098;21.006;2023-04-09T13:23:08;101011.00;;;16.90
68127;BMP180;54931;52.098;21.006;2023-04-09T13:25:36;101006.80;;;17.10
68127;BMP180;54931;52.098;21.006;2023-04-09T13:28:03;101001.40;;;17.00
68127;BMP180;54931;52.098;21.006;2023-04-09T13:30:31;101003.60;;;17.10
68127;BMP180;54931;52.098;21.006;2023-04-09T13:32:58;101001.40;;;17.28
68127;BMP180;54931;52.098;21.006;2023-04-09T13:35:26;100999.20;;;17.40
68127;BMP180;54931;52.098;21.006;2023-04-09T13:37:54;100995.80;;;17.60
68127;BMP180;54931;52.098;21.006;2023-04-09T13:40:22;100992.60;;;17.58
68127;BMP180;54931;52.098;21.006;2023-04-09T13:42:50;100992.20;;;17.50
68127;BMP180;54931;52.098;21.006;2023-04-09T13:45:18;100988.40;;;17.50
68127;BMP180;54931;52.098;21.006;2023-04-09T13:47:47;100989.00;;;17.60
68127;BMP180;54931;52.098;21.006;2023-04-09T13:50:15;100988.00;;;17.60
68127;BMP180;54931;52.098;21.006;2023-04-09T13:52:43;100988.40;;;17.30
68127;BMP180;54931;52.098;21.006;2023-04-09T13:55:11;100992.40;;;17.40
68127;BMP180;54931;52.098;21.006;2023-04-09T13:57:39;100989.80;;;17.60
68127;BMP180;54931;52.098;21.006;2023-04-09T14:00:07;100991.40;;;17.50
68127;BMP180;54931;52.098;21.006;2023-04-09T14:02:35;100996.40;;;17.40